sensor_id;sensor_type;location;lat;lon;timestamp;pressure;altitude;pressure_sealevel;temperature;humidity
47054;BME280;32811;52.382;5.270;2023-05-11T00:00:41;101511.00;;;11.93;100.00
47054;BME280;32811;52.382;5.270;2023-05-11T00:03:07;101539.56;;;12.07;100.00
47054;BME280;32811;52.382;5.270;2023-05-11T00:05:38;101530.91;;;11.99;100.00
47054;BME280;32811;52.382;5.270;2023-05-11T00:08:05;101502.25;;;11.85;100.00
47054;BME280;32811;52.382;5.270;2023-05-11T00:10:32;101500.47;;;11.79;100.00
47054;BME280;32811;52.382;5.270;2023-05-11T00:13:01;101512.63;;;11.87;100.00
47054;BME280;32811;52.382;5.270;2023-05-11T00:15:28;101514.41;;;11.89;100.00
47054;BME280;32811;52.382;5.270;2023-05-11T00:17:57;101528.31;;;12.00;100.00
47054;BME280;32811;52.382;5.270;2023-05-11T00:20:23;101536.09;;;12.05;100.00
47054;BME280;32811;52.382;5.270;2023-05-11T00:22:50;101527.47;;;12.01;100.00
47054;BME280;32811;52.382;5.270;2023-05-11T00:25:16;101523.13;;;11.99;100.00
47054;BME280;32811;52.382;5.270;2023-05-11T00:27:43;101523.94;;;11.93;100.00
47054;BME280;32811;52.382;5.270;2023-05-11T00:30:12;101535.22;;;12.00;100.00
47054;BME280;32811;52.382;5.270;2023-05-11T00:32:40;101535.22;;;12.00;100.00
47054;BME280;32811;52.382;5.270;2023-05-11T00:35:11;101540.41;;;12.01;100.00
47054;BME280;32811;52.382;5.270;2023-05-11T00:37:38;101548.16;;;12.01;100.00
47054;BME280;32811;52.382;5.270;2023-05-11T00:40:05;101536.03;;;11.97;100.00
47054;BME280;32811;52.382;5.270;2023-05-11T00:42:32;101529.91;;;11.89;100.00
47054;BME280;32811;52.382;5.270;2023-05-11T00:44:59;101537.72;;;11.94;100.00
47054;BME280;32811;52.382;5.270;2023-05-11T00:47:26;101540.31;;;11.94;100.00
47054;BME280;32811;52.382;5.270;2023-05-11T00:49:55;101541.19;;;11.93;100.00
47054;BME280;32811;52.382;5.270;2023-05-11T00:52:23;101537.72;;;11.94;100.00
47054;BME280;32811;52.382;5.270;2023-05-11T00:54:50;101533.38;;;11.88;100.00
47054;BME280;32811;52.382;5.270;2023-05-11T00:57:17;101546.31;;;11.90;100.00
47054;BME280;32811;52.382;5.270;2023-05-11T00:59:43;101540.25;;;11.88;100.00
47054;BME280;32811;52.382;5.270;2023-05-11T01:02:10;101538.47;;;11.85;100.00
47054;BME280;32811;52.382;5.270;2023-05-11T01:04:37;101542.81;;;11.88;100.00
47054;BME280;32811;52.382;5.270;2023-05-11T01:07:19;101541.06;;;11.87;100.00
47054;BME280;32811;52.382;5.270;2023-05-11T01:09:59;101541.06;;;11.87;100.00
47054;BME280;32811;52.382;5.270;2023-05-11T01:15:10;101553.22;;;11.91;100.00
47054;BME280;32811;52.382;5.270;2023-05-11T01:17:45;101564.41;;;11.90;100.00
47054;BME280;32811;52.382;5.270;2023-05-11T01:20:17;101561.81;;;11.88;100.00
47054;BME280;32811;52.382;5.270;2023-05-11T01:25:55;101557.47;;;11.86;100.00
47054;BME280;32811;52.382;5.270;2023-05-11T01:31:33;101570.44;;;11.89;100.00
47054;BME280;32811;52.382;5.270;2023-05-11T01:34:03;101573.94;;;11.91;100.00
47054;BME280;32811;52.382;5.270;2023-05-11T01:36:37;101560.03;;;11.84;100.00
47054;BME280;32811;52.382;5.270;2023-05-11T01:39:07;101559.13;;;11.82;100.00
47054;BME280;32811;52.382;5.270;2023-05-11T01:41:39;101561.69;;;11.80;100.00
47054;BME280;32811;52.382;5.270;2023-05-11T01:44:09;101559.97;;;11.81;100.00
47054;BME280;32811;52.382;5.270;2023-05-11T01:46:36;101557.38;;;11.79;100.00
47054;BME280;32811;52.382;5.270;2023-05-11T01:49:05;101552.13;;;11.72;100.00
47054;BME280;32811;52.382;5.270;2023-05-11T01:51:36;101552.13;;;11.72;100.00
47054;BME280;32811;52.382;5.270;2023-05-11T01:54:08;101562.47;;;11.72;100.00
47054;BME280;32811;52.382;5.270;2023-05-11T01:56:37;101566.78;;;11.73;100.00
47054;BME280;32811;52.382;5.270;2023-05-11T01:59:07;101547.63;;;11.55;100.00
47054;BME280;32811;52.382;5.270;2023-05-11T02:01:38;101572.78;;;11.69;100.00
47054;BME280;32811;52.382;5.270;2023-05-11T02:04:07;101560.66;;;11.64;100.00
47054;BME280;32811;52.382;5.270;2023-05-11T02:06:36;101565.00;;;11.67;100.00
47054;BME280;32811;52.382;5.270;2023-05-11T02:09:04;101571.88;;;11.65;100.00
47054;BME280;32811;52.382;5.270;2023-05-11T02:11:33;101566.69;;;11.63;100.00
47054;BME280;32811;52.382;5.270;2023-05-11T02:14:02;101561.50;;;11.62;100.00
47054;BME280;32811;52.382;5.270;2023-05-11T02:16:31;101563.19;;;11.60;100.00
47054;BME280;32811;52.382;5.270;2023-05-11T02:18:58;101564.03;;;11.57;100.00
47054;BME280;32811;52.382;5.270;2023-05-11T02:21:26;101567.50;;;11.59;100.00
47054;BME280;32811;52.382;5.270;2023-05-11T02:23:53;101564.88;;;11.55;100.00
47054;BME280;32811;52.382;5.270;2023-05-11T02:26:21;101574.41;;;11.59;100.00
47054;BME280;32811;52.382;5.270;2023-05-11T02:28:50;101577.81;;;11.58;100.00
47054;BME280;32811;52.382;5.270;2023-05-11T02:31:19;101573.50;;;11.57;100.00
47054;BME280;32811;52.382;5.270;2023-05-11T02:33:50;101566.53;;;11.51;100.00
47054;BME280;32811;52.382;5.270;2023-05-11T02:36:21;101578.63;;;11.54;100.00
47054;BME280;32811;52.382;5.270;2023-05-11T02:38:49;101576.00;;;11.51;100.00
47054;BME280;32811;52.382;5.270;2023-05-11T02:41:25;101568.19;;;11.45;100.00
47054;BME280;32811;52.382;5.270;2023-05-11T02:43:53;101563.81;;;11.39;100.00
47054;BME280;32811;52.382;5.270;2023-05-11T02:46:25;101563.81;;;11.39;100.00
47054;BME280;32811;52.382;5.270;2023-05-11T02:48:56;101568.06;;;11.35;100.00
47054;BME280;32811;52.382;5.270;2023-05-11T02:51:31;101575.84;;;11.38;100.00
47054;BME280;32811;52.382;5.270;2023-05-11T02:53:59;101586.22;;;11.40;100.00
47054;BME280;32811;52.382;5.270;2023-05-11T02:56:28;101578.44;;;11.37;100.00
47054;BME280;32811;52.382;5.270;2023-05-11T02:58:55;101576.69;;;11.34;100.00
47054;BME280;32811;52.382;5.270;2023-05-11T03:01:21;101577.56;;;11.36;100.00
47054;BME280;32811;52.382;5.270;2023-05-11T03:03:49;101580.19;;;11.39;100.00
47054;BME280;32811;52.382;5.270;2023-05-11T03:06:16;101572.41;;;11.36;100.00
47054;BME280;32811;52.382;5.270;2023-05-11T03:08:42;101574.97;;;11.38;100.00
47054;BME280;32811;52.382;5.270;2023-05-11T03:11:10;101570.69;;;11.37;100.00
47054;BME280;32811;52.382;5.270;2023-05-11T03:13:38;101570.69;;;11.37;100.00
47054;BME280;32811;52.382;5.270;2023-05-11T03:16:05;101571.50;;;11.34;100.00
47054;BME280;32811;52.382;5.270;2023-05-11T03:18:33;101575.84;;;11.37;100.00
47054;BME280;32811;52.382;5.270;2023-05-11T03:21:01;101578.44;;;11.37;100.00
47054;BME280;32811;52.382;5.270;2023-05-11T03:23:29;101570.63;;;11.34;100.00
47054;BME280;32811;52.382;5.270;2023-05-11T03:25:57;101571.56;;;11.39;100.00
47054;BME280;32811;52.382;5.270;2023-05-11T03:28:25;101573.25;;;11.38;100.00
47054;BME280;32811;52.382;5.270;2023-05-11T03:30:53;101560.28;;;11.32;100.00
47054;BME280;32811;52.382;5.270;2023-05-11T03:33:20;101560.31;;;11.35;100.00
47054;BME280;32811;52.382;5.270;2023-05-11T03:35:48;101558.53;;;11.31;100.00
47054;BME280;32811;52.382;5.270;2023-05-11T03:38:17;101561.13;;;11.31;100.00
47054;BME280;32811;52.382;5.270;2023-05-11T03:40:44;101558.59;;;11.34;100.00
47054;BME280;32811;52.382;5.270;2023-05-11T03:43:15;101562.91;;;11.38;100.00
47054;BME280;32811;52.382;5.270;2023-05-11T03:45:49;101566.38;;;11.37;100.00
47054;BME280;32811;52.382;5.270;2023-05-11T03:48:17;101555.13;;;11.32;100.00
47054;BME280;32811;52.382;5.270;2023-05-11T03:50:44;101566.38;;;11.37;100.00
47054;BME280;32811;52.382;5.270;2023-05-11T03:53:11;101556.00;;;11.34;100.00
47054;BME280;32811;52.382;5.270;2023-05-11T03:55:38;101558.63;;;11.37;100.00
47054;BME280;32811;52.382;5.270;2023-05-11T03:58:06;101547.38;;;11.35;100.00
47054;BME280;32811;52.382;5.270;2023-05-11T04:00:38;101551.75;;;11.39;100.00
47054;BME280;32811;52.382;5.270;2023-05-11T04:03:05;101561.28;;;11.43;100.00
47054;BME280;32811;52.382;5.270;2023-05-11T04:05:32;101559.53;;;11.42;100.00
47054;BME280;32811;52.382;5.270;2023-05-11T04:07:59;101553.44;;;11.37;100.00
47054;BME280;32811;52.382;5.270;2023-05-11T04:10:27;101554.31;;;11.38;100.00
47054;BME280;32811;52.382;5.270;2023-05-11T04:12:53;101553.47;;;11.39;100.00
47054;BME280;32811;52.382;5.270;2023-05-11T04:15:20;101562.97;;;11.41;100.00
47054;BME280;32811;52.382;5.270;2023-05-11T04:17:47;101566.41;;;11.39;100.00
47054;BME280;32811;52.382;5.270;2023-05-11T04:20:13;101562.13;;;11.42;100.00
47054;BME280;32811;52.382;5.270;2023-05-11T04:22:40;101571.66;;;11.47;100.00
47054;BME280;32811;52.382;5.270;2023-05-11T04:25:07;101575.16;;;11.50;100.00
47054;BME280;32811;52.382;5.270;2023-05-11T04:27:34;101575.13;;;11.49;100.00
47054;BME280;32811;52.382;5.270;2023-05-11T04:30:00;101573.41;;;11.49;100.00
47054;BME280;32811;52.382;5.270;2023-05-11T04:32:28;101571.72;;;11.53;100.00
47054;BME280;32811;52.382;5.270;2023-05-11T04:34:55;101567.41;;;11.52;100.00
47054;BME280;32811;52.382;5.270;2023-05-11T04:37:22;101572.63;;;11.55;100.00
47054;BME280;32811;52.382;5.270;2023-05-11T04:39:49;101575.22;;;11.55;100.00
47054;BME280;32811;52.382;5.270;2023-05-11T04:42:15;101583.00;;;11.58;100.00
47054;BME280;32811;52.382;5.270;2023-05-11T04:44:42;101571.72;;;11.53;100.00
47054;BME280;32811;52.382;5.270;2023-05-11T04:47:08;101582.13;;;11.57;100.00
47054;BME280;32811;52.382;5.270;2023-05-11T04:49:35;101582.16;;;11.59;100.00
47054;BME280;32811;52.382;5.270;2023-05-11T04:52:01;101576.97;;;11.57;100.00
47054;BME280;32811;52.382;5.270;2023-05-11T04:54:28;101578.72;;;11.63;100.00
47054;BME280;32811;52.382;5.270;2023-05-11T04:56:57;101581.34;;;11.64;100.00
47054;BME280;32811;52.382;5.270;2023-05-11T04:59:24;101588.28;;;11.66;100.00
47054;BME280;32811;52.382;5.270;2023-05-11T05:01:50;101583.97;;;11.66;100.00
47054;BME280;32811;52.382;5.270;2023-05-11T05:04:17;101591.75;;;11.68;100.00
47054;BME280;32811;52.382;5.270;2023-05-11T05:06:44;101599.47;;;11.66;100.00
47054;BME280;32811;52.382;5.270;2023-05-11T05:09:11;101593.41;;;11.64;100.00
47054;BME280;32811;52.382;5.270;2023-05-11T05:11:37;101599.47;;;11.66;100.00
47054;BME280;32811;52.382;5.270;2023-05-11T05:14:06;101591.66;;;11.63;100.00
47054;BME280;32811;52.382;5.270;2023-05-11T05:16:35;101594.22;;;11.60;100.00
47054;BME280;32811;52.382;5.270;2023-05-11T05:19:02;101598.63;;;11.67;100.00
47054;BME280;32811;52.382;5.270;2023-05-11T05:21:29;101596.88;;;11.64;100.00
47054;BME280;32811;52.382;5.270;2023-05-11T05:23:55;101588.22;;;11.61;100.00
47054;BME280;32811;52.382;5.270;2023-05-11T05:26:22;101594.31;;;11.66;100.00
47054;BME280;32811;52.382;5.270;2023-05-11T05:28:48;101590.78;;;11.59;100.00
47054;BME280;32811;52.382;5.270;2023-05-11T05:31:15;101604.66;;;11.66;100.00
47054;BME280;32811;52.382;5.270;2023-05-11T05:33:42;101600.31;;;11.63;100.00
47054;BME280;32811;52.382;5.270;2023-05-11T05:36:08;101599.38;;;11.60;100.00
47054;BME280;32811;52.382;5.270;2023-05-11T05:38:35;101609.72;;;11.58;100.00
47054;BME280;32811;52.382;5.270;2023-05-11T05:41:01;101613.19;;;11.59;100.00
47054;BME280;32811;52.382;5.270;2023-05-11T05:43:28;101608.00;;;11.59;100.00
47054;BME280;32811;52.382;5.270;2023-05-11T05:45:54;101618.41;;;11.63;100.00
47054;BME280;32811;52.382;5.270;2023-05-11T05:48:21;101629.75;;;11.76;100.00
47054;BME280;32811;52.382;5.270;2023-05-11T05:50:48;101632.47;;;11.86;100.00
47054;BME280;32811;52.382;5.270;2023-05-11T05:53:14;101624.81;;;11.93;100.00
47054;BME280;32811;52.382;5.270;2023-05-11T05:55:41;101621.47;;;12.02;100.00
47054;BME280;32811;52.382;5.270;2023-05-11T05:58:07;101621.47;;;12.02;100.00
47054;BME280;32811;52.382;5.270;2023-05-11T06:00:34;101612.84;;;12.01;100.00
47054;BME280;32811;52.382;5.270;2023-05-11T06:03:01;101628.44;;;12.06;100.00
47054;BME280;32811;52.382;5.270;2023-05-11T06:05:28;101632.78;;;12.12;100.00
47054;BME280;32811;52.382;5.270;2023-05-11T06:07:55;101634.50;;;12.11;100.00
47054;BME280;32811;52.382;5.270;2023-05-11T06:10:35;101641.47;;;12.18;100.00
47054;BME280;32811;52.382;5.270;2023-05-11T06:13:02;101634.69;;;12.27;100.00
47054;BME280;32811;52.382;5.270;2023-05-11T06:15:28;101639.97;;;12.40;100.00
47054;BME280;32811;52.382;5.270;2023-05-11T06:17:55;101639.13;;;12.43;100.00
47054;BME280;32811;52.382;5.270;2023-05-11T06:20:22;101634.81;;;12.42;100.00
47054;BME280;32811;52.382;5.270;2023-05-11T06:22:49;101641.75;;;12.44;100.00
47054;BME280;32811;52.382;5.270;2023-05-11T06:25:16;101641.75;;;12.44;100.00
47054;BME280;32811;52.382;5.270;2023-05-11T06:27:42;101641.78;;;12.48;100.00
47054;BME280;32811;52.382;5.270;2023-05-11T06:30:09;101634.94;;;12.54;100.00
47054;BME280;32811;52.382;5.270;2023-05-11T06:32:36;101637.50;;;12.54;100.00
47054;BME280;32811;52.382;5.270;2023-05-11T06:35:03;101637.50;;;12.54;100.00
47054;BME280;32811;52.382;5.270;2023-05-11T06:37:30;101643.53;;;12.52;100.00
47054;BME280;32811;52.382;5.270;2023-05-11T06:39:57;101652.22;;;12.57;100.00
47054;BME280;32811;52.382;5.270;2023-05-11T06:42:24;101641.03;;;12.61;100.00
47054;BME280;32811;52.382;5.270;2023-05-11T06:44:51;101641.91;;;12.63;100.00
47054;BME280;32811;52.382;5.270;2023-05-11T06:47:18;101639.31;;;12.63;100.00
47054;BME280;32811;52.382;5.270;2023-05-11T06:49:44;101637.56;;;12.60;100.00
47054;BME280;32811;52.382;5.270;2023-05-11T06:52:11;101626.31;;;12.55;100.00
47054;BME280;32811;52.382;5.270;2023-05-11T06:54:37;101616.78;;;12.51;100.00
47054;BME280;32811;52.382;5.270;2023-05-11T06:57:04;101615.09;;;12.55;100.00
47054;BME280;32811;52.382;5.270;2023-05-11T06:59:31;101641.94;;;12.67;100.00
47054;BME280;32811;52.382;5.270;2023-05-11T07:01:57;101635.06;;;12.66;100.00
47054;BME280;32811;52.382;5.270;2023-05-11T07:04:24;101629.81;;;12.63;100.00
47054;BME280;32811;52.382;5.270;2023-05-11T07:06:51;101628.19;;;12.75;100.00
47054;BME280;32811;52.382;5.270;2023-05-11T07:09:18;101611.78;;;12.71;100.00
47054;BME280;32811;52.382;5.270;2023-05-11T07:11:44;101606.66;;;12.77;100.00
47054;BME280;32811;52.382;5.270;2023-05-11T07:14:11;101612.81;;;12.96;100.00
47054;BME280;32811;52.382;5.270;2023-05-11T07:16:38;101612.00;;;13.05;100.00
47054;BME280;32811;52.382;5.270;2023-05-11T07:19:05;101604.22;;;13.03;100.00
47054;BME280;32811;52.382;5.270;2023-05-11T07:21:34;101628.44;;;13.10;100.00
47054;BME280;32811;52.382;5.270;2023-05-11T07:24:01;101629.34;;;13.12;100.00
47054;BME280;32811;52.382;5.270;2023-05-11T07:26:29;101580.78;;;12.82;100.00
47054;BME280;32811;52.382;5.270;2023-05-11T07:28:56;101606.78;;;12.96;100.00
47054;BME280;32811;52.382;5.270;2023-05-11T07:31:22;101632.78;;;13.13;100.00
47054;BME280;32811;52.382;5.270;2023-05-11T07:33:49;101611.06;;;12.94;100.00
47054;BME280;32811;52.382;5.270;2023-05-11T07:36:15;101618.94;;;13.07;100.00
47054;BME280;32811;52.382;5.270;2023-05-11T07:38:42;101610.34;;;13.16;100.00
47054;BME280;32811;52.382;5.270;2023-05-11T07:41:09;101643.28;;;13.28;100.00
47054;BME280;32811;52.382;5.270;2023-05-11T07:43:38;101642.44;;;13.29;100.00
47054;BME280;32811;52.382;5.270;2023-05-11T07:46:05;101635.50;;;13.26;100.00
47054;BME280;32811;52.382;5.270;2023-05-11T07:48:31;101633.78;;;13.30;100.00
47054;BME280;32811;52.382;5.270;2023-05-11T07:50:58;101647.56;;;13.23;100.00
47054;BME280;32811;52.382;5.270;2023-05-11T07:53:25;101638.94;;;13.25;100.00
47054;BME280;32811;52.382;5.270;2023-05-11T07:55:51;101628.53;;;13.18;100.00
47054;BME280;32811;52.382;5.270;2023-05-11T07:58:18;101628.53;;;13.21;100.00
47054;BME280;32811;52.382;5.270;2023-05-11T08:00:45;101648.38;;;13.19;100.00
47054;BME280;32811;52.382;5.270;2023-05-11T08:03:12;101638.03;;;13.20;100.00
47054;BME280;32811;52.382;5.270;2023-05-11T08:05:39;101650.16;;;13.24;100.00
47054;BME280;32811;52.382;5.270;2023-05-11T08:08:06;101639.78;;;13.23;100.00
47054;BME280;32811;52.382;5.270;2023-05-11T08:10:34;101650.25;;;13.34;100.00
47054;BME280;32811;52.382;5.270;2023-05-11T08:13:01;101649.41;;;13.39;100.00
47054;BME280;32811;52.382;5.270;2023-05-11T08:15:28;101647.72;;;13.46;100.00
47054;BME280;32811;52.382;5.270;2023-05-11T08:17:54;101639.13;;;13.55;100.00
47054;BME280;32811;52.382;5.270;2023-05-11T08:20:22;101642.69;;;13.77;100.00
47054;BME280;32811;52.382;5.270;2023-05-11T08:22:49;101647.94;;;13.97;100.00
47054;BME280;32811;52.382;5.270;2023-05-11T08:25:15;101642.72;;;13.87;100.00
47054;BME280;32811;52.382;5.270;2023-05-11T08:27:42;101637.56;;;13.97;100.00
47054;BME280;32811;52.382;5.270;2023-05-11T08:30:10;101633.25;;;13.96;100.00
47054;BME280;32811;52.382;5.270;2023-05-11T08:32:37;101635.00;;;14.03;100.00
47054;BME280;32811;52.382;5.270;2023-05-11T08:35:24;101634.16;;;14.16;100.00
47054;BME280;32811;52.382;5.270;2023-05-11T08:37:50;101635.00;;;14.10;100.00
47054;BME280;32811;52.382;5.270;2023-05-11T08:40:18;101641.91;;;14.13;100.00
47054;BME280;32811;52.382;5.270;2023-05-11T08:42:45;101636.69;;;13.99;100.00
47054;BME280;32811;52.382;5.270;2023-05-11T08:45:15;101638.41;;;13.93;100.00
47054;BME280;32811;52.382;5.270;2023-05-11T08:47:44;101638.38;;;13.82;100.00
47054;BME280;32811;52.382;5.270;2023-05-11T08:50:11;101640.94;;;13.77;100.00
47054;BME280;32811;52.382;5.270;2023-05-11T08:52:38;101625.34;;;13.65;100.00
47054;BME280;32811;52.382;5.270;2023-05-11T08:55:07;101619.28;;;13.64;100.00
47054;BME280;32811;52.382;5.270;2023-05-11T08:57:34;101647.94;;;13.97;100.00
47054;BME280;32811;52.382;5.270;2023-05-11T09:00:02;101645.38;;;14.07;100.00
47054;BME280;32811;52.382;5.270;2023-05-11T09:02:30;101646.25;;;14.17;100.00
47054;BME280;32811;52.382;5.270;2023-05-11T09:04:57;101648.91;;;14.37;100.00
47054;BME280;32811;52.382;5.270;2023-05-11T09:07:25;101644.59;;;14.31;100.00
47054;BME280;32811;52.382;5.270;2023-05-11T09:09:53;101654.94;;;14.33;100.00
47054;BME280;32811;52.382;5.270;2023-05-11T09:12:20;101654.94;;;14.19;100.00
47054;BME280;32811;52.382;5.270;2023-05-11T09:14:51;101653.13;;;13.94;100.00
47054;BME280;32811;52.382;5.270;2023-05-11T09:17:18;101653.94;;;13.83;100.00
47054;BME280;32811;52.382;5.270;2023-05-11T09:19:59;101655.59;;;13.66;100.00
47054;BME280;32811;52.382;5.270;2023-05-11T09:22:26;101644.25;;;13.44;100.00
47054;BME280;32811;52.382;5.270;2023-05-11T09:24:56;101653.72;;;13.37;100.00
47054;BME280;32811;52.382;5.270;2023-05-11T09:27:23;101661.50;;;13.37;100.00
47054;BME280;32811;52.382;5.270;2023-05-11T09:29:54;101659.75;;;13.33;100.00
47054;BME280;32811;52.382;5.270;2023-05-11T09:32:21;101657.94;;;13.24;100.00
47054;BME280;32811;52.382;5.270;2023-05-11T09:34:47;101667.44;;;13.22;100.00
47054;BME280;32811;52.382;5.270;2023-05-11T09:37:16;101668.28;;;13.23;100.00
47054;BME280;32811;52.382;5.270;2023-05-11T09:39:43;101667.38;;;13.19;100.00
47054;BME280;32811;52.382;5.270;2023-05-11T09:42:20;101675.22;;;13.24;100.00
47054;BME280;32811;52.382;5.270;2023-05-11T09:44:47;101674.34;;;13.22;100.00
47054;BME280;32811;52.382;5.270;2023-05-11T09:47:15;101673.47;;;13.23;100.00
47054;BME280;32811;52.382;5.270;2023-05-11T09:49:43;101671.78;;;13.26;100.00
47054;BME280;32811;52.382;5.270;2023-05-11T09:52:11;101677.84;;;13.27;100.00
47054;BME280;32811;52.382;5.270;2023-05-11T09:54:43;101671.78;;;13.25;100.00
47054;BME280;32811;52.382;5.270;2023-05-11T09:57:29;101678.63;;;13.21;100.00
47054;BME280;32811;52.382;5.270;2023-05-11T09:59:58;101686.38;;;13.17;100.00
47054;BME280;32811;52.382;5.270;2023-05-11T10:02:29;101681.22;;;13.17;100.00
47054;BME280;32811;52.382;5.270;2023-05-11T10:05:00;101693.28;;;13.15;100.00
47054;BME280;32811;52.382;5.270;2023-05-11T10:07:35;101690.66;;;13.08;100.00
47054;BME280;32811;52.382;5.270;2023-05-11T10:10:07;101693.28;;;13.13;100.00
47054;BME280;32811;52.382;5.270;2023-05-11T10:12:36;101673.34;;;13.03;100.00
47054;BME280;32811;52.382;5.270;2023-05-11T10:15:08;101681.09;;;13.03;100.00
47054;BME280;32811;52.382;5.270;2023-05-11T10:17:35;101695.78;;;13.02;100.00
47054;BME280;32811;52.382;5.270;2023-05-11T10:20:04;101697.56;;;13.06;100.00
47054;BME280;32811;52.382;5.270;2023-05-11T10:22:31;101690.63;;;13.05;100.00
47054;BME280;32811;52.382;5.270;2023-05-11T10:24:59;101699.31;;;13.09;100.00
47054;BME280;32811;52.382;5.270;2023-05-11T10:27:25;101686.22;;;12.94;100.00
47054;BME280;32811;52.382;5.270;2023-05-11T10:29:52;101690.47;;;12.87;100.00
47054;BME280;32811;52.382;5.270;2023-05-11T10:32:19;101704.25;;;12.81;100.00
47054;BME280;32811;52.382;5.270;2023-05-11T10:34:47;101705.88;;;12.72;100.00
47054;BME280;32811;52.382;5.270;2023-05-11T10:37:15;101705.88;;;12.69;100.00
47054;BME280;32811;52.382;5.270;2023-05-11T10:39:44;101724.09;;;12.79;100.00
47054;BME280;32811;52.382;5.270;2023-05-11T10:56:51;101717.03;;;12.63;100.00
47054;BME280;32811;52.382;5.270;2023-05-11T11:02:36;101717.97;;;12.71;100.00
47054;BME280;32811;52.382;5.270;2023-05-11T11:05:04;101726.72;;;12.85;100.00
47054;BME280;32811;52.382;5.270;2023-05-11T11:08:06;101716.41;;;12.90;100.00
47054;BME280;32811;52.382;5.270;2023-05-11T11:10:40;101715.59;;;12.94;100.00
47054;BME280;32811;52.382;5.270;2023-05-11T11:13:11;101719.06;;;12.96;100.00
47054;BME280;32811;52.382;5.270;2023-05-11T11:20:54;101708.69;;;12.96;100.00
47054;BME280;32811;52.382;5.270;2023-05-11T11:23:54;101712.25;;;13.09;100.00
47054;BME280;32811;52.382;5.270;2023-05-11T11:26:46;101711.47;;;13.18;100.00
47054;BME280;32811;52.382;5.270;2023-05-11T11:29:13;101701.06;;;13.13;100.00
47054;BME280;32811;52.382;5.270;2023-05-11T11:31:40;101705.47;;;13.25;100.00
47054;BME280;32811;52.382;5.270;2023-05-11T11:39:24;101700.63;;;13.74;100.00
47054;BME280;32811;52.382;5.270;2023-05-11T11:42:05;101701.59;;;13.96;100.00
47054;BME280;32811;52.382;5.270;2023-05-11T11:44:33;101700.81;;;14.19;100.00
47054;BME280;32811;52.382;5.270;2023-05-11T11:47:19;101706.00;;;14.23;100.00
47054;BME280;32811;52.382;5.270;2023-05-11T11:49:47;101699.03;;;14.08;100.00
47054;BME280;32811;52.382;5.270;2023-05-11T11:54:54;101692.16;;;14.14;100.00
47054;BME280;32811;52.382;5.270;2023-05-11T11:57:45;101663.53;;;14.01;100.00
47054;BME280;32811;52.382;5.270;2023-05-11T12:00:19;101679.16;;;14.15;100.00
47054;BME280;32811;52.382;5.270;2023-05-11T12:02:46;101689.56;;;14.24;100.00
47054;BME280;32811;52.382;5.270;2023-05-11T12:05:17;101696.50;;;14.28;100.00
47054;BME280;32811;52.382;5.270;2023-05-11T12:07:50;101684.38;;;14.21;100.00
47054;BME280;32811;52.382;5.270;2023-05-11T12:10:19;101677.44;;;14.22;100.00
47054;BME280;32811;52.382;5.270;2023-05-11T12:12:47;101691.34;;;14.44;100.00
47054;BME280;32811;52.382;5.270;2023-05-11T12:15:23;101689.59;;;14.29;100.00
47054;BME280;32811;52.382;5.270;2023-05-11T12:17:51;101680.91;;;14.24;100.00
47054;BME280;32811;52.382;5.270;2023-05-11T12:20:18;101662.69;;;14.10;100.00
47054;BME280;32811;52.382;5.270;2023-05-11T12:22:46;101675.75;;;14.27;100.00
47054;BME280;32811;52.382;5.270;2023-05-11T12:25:15;101670.53;;;14.22;100.00
47054;BME280;32811;52.382;5.270;2023-05-11T12:27:52;101692.22;;;14.38;100.00
47054;BME280;32811;52.382;5.270;2023-05-11T12:30:31;101675.69;;;14.19;100.00
47054;BME280;32811;52.382;5.270;2023-05-11T12:32:59;101690.44;;;14.31;100.00
47054;BME280;32811;52.382;5.270;2023-05-11T12:35:30;101665.34;;;14.22;100.00
47054;BME280;32811;52.382;5.270;2023-05-11T12:37:59;101677.47;;;14.32;100.00
47054;BME280;32811;52.382;5.270;2023-05-11T12:40:26;101684.38;;;14.27;100.00
47054;BME280;32811;52.382;5.270;2023-05-11T12:42:57;101671.38;;;14.21;100.00
47054;BME280;32811;52.382;5.270;2023-05-11T12:45:25;101679.19;;;14.18;100.00
47054;BME280;32811;52.382;5.270;2023-05-11T12:47:53;101679.16;;;14.24;100.00
47054;BME280;32811;52.382;5.270;2023-05-11T12:50:21;101681.75;;;14.21;100.00
47054;BME280;32811;52.382;5.270;2023-05-11T12:52:48;101685.25;;;14.29;100.00
47054;BME280;32811;52.382;5.270;2023-05-11T12:55:26;101680.06;;;14.34;100.00
47054;BME280;32811;52.382;5.270;2023-05-11T12:58:06;101681.78;;;14.30;100.00
47054;BME280;32811;52.382;5.270;2023-05-11T13:00:33;101670.53;;;14.21;100.00
47054;BME280;32811;52.382;5.270;2023-05-11T13:03:00;101677.50;;;14.39;100.00
47054;BME280;32811;52.382;5.270;2023-05-11T13:05:27;101680.06;;;14.32;100.00
47054;BME280;32811;52.382;5.270;2023-05-11T13:08:03;101675.75;;;14.36;100.00
47054;BME280;32811;52.382;5.270;2023-05-11T13:10:30;101675.75;;;14.38;100.00
47054;BME280;32811;52.382;5.270;2023-05-11T13:12:57;101674.03;;;14.37;100.00
47054;BME280;32811;52.382;5.270;2023-05-11T13:15:24;101671.41;;;14.40;100.00
47054;BME280;32811;52.382;5.270;2023-05-11T13:17:58;101660.16;;;14.27;100.00
47054;BME280;32811;52.382;5.270;2023-05-11T13:20:31;101674.03;;;14.43;100.00
47054;BME280;32811;52.382;5.270;2023-05-11T13:23:03;101666.22;;;14.32;100.00
47054;BME280;32811;52.382;5.270;2023-05-11T13:25:31;101660.19;;;14.36;100.00
47054;BME280;32811;52.382;5.270;2023-05-11T13:27:58;101673.22;;;14.56;100.00